Time;durP1;ratioP1;P1;durP2;ratioP2;P2;SDS_P1;SDS_P2;PMS_P1;PMS_P2;Temp;Humidity;BMP_temperature;BMP_pressure;BME280_temperature;BME280_humidity;BME280_pressure;Samples;Min_cycle;Max_cycle;Signal;HPM_P1;HPM_P2
2022/10/23 00:00:29;;;;;;;;;;;;;;;10.80;100.00;98210.28;7390704;19;19911;-53
2022/10/23 00:03:02;;;;;;;;;;;;;;;10.95;100.00;98221.66;7383989;19;19914;-54
2022/10/23 00:05:35;;;;;;;;;;;;;;;10.83;100.00;98211.88;7390454;19;19935;-50
2022/10/23 00:08:08;;;;;;;;;;;;;;;10.85;100.00;98218.72;7388515;19;19927;-51
2022/10/23 00:10:41;;;;;;;;;;;;;;;10.80;100.00;98223.44;7383801;19;20192;-54
2022/10/23 00:13:17;;;;;;;;;;;;;;;10.87;100.00;98223.91;7387739;19;19933;-53
2022/10/23 00:15:50;;;;;;;;;;;;;;;10.84;100.00;98229.38;7384678;19;19914;-53
2022/10/23 00:18:24;;;;;;;;;;;;;;;10.79;100.00;98224.38;7390324;19;19927;-54
2022/10/23 00:20:56;;;;;;;;;;;;;;;10.73;100.00;98227.38;7386632;19;20430;-53
2022/10/23 00:23:30;;;;;;;;;;;;;;;10.74;100.00;98236.94;7386609;19;20487;-52
2022/10/23 00:26:03;;;;;;;;;;;;;;;10.77;100.00;98233.31;7388649;19;19914;-53
2022/10/23 00:28:39;;;;;;;;;;;;;;;10.78;100.00;98243.75;7385617;19;19935;-56
2022/10/23 00:31:13;;;;;;;;;;;;;;;11.01;100.00;98240.59;7389815;19;19932;-53
2022/10/23 00:33:46;;;;;;;;;;;;;;;10.84;100.00;98242.53;7387273;19;20017;-53
2022/10/23 00:36:21;;;;;;;;;;;;;;;10.89;100.00;98251.84;7385028;19;19919;-52
2022/10/23 00:38:54;;;;;;;;;;;;;;;10.89;100.00;98253.59;7387534;19;19918;-52
2022/10/23 00:41:31;;;;;;;;;;;;;;;10.74;100.00;98257.16;7380622;19;19916;-52
2022/10/23 00:44:10;;;;;;;;;;;;;;;10.85;100.00;98250.28;7389716;19;19934;-48
2022/10/23 00:46:45;;;;;;;;;;;;;;;10.79;100.00;98255.09;7388440;19;19930;-50
2022/10/23 00:49:19;;;;;;;;;;;;;;;10.74;100.00;98254.53;7388105;19;19911;-56
2022/10/23 00:51:53;;;;;;;;;;;;;;;10.97;100.00;98238.19;7389189;19;19923;-53
2022/10/23 00:54:27;;;;;;;;;;;;;;;10.98;100.00;98250.44;7384858;19;19919;-53
2022/10/23 00:57:02;;;;;;;;;;;;;;;10.78;100.00;98240.25;7386758;19;19950;-54
2022/10/23 00:59:38;;;;;;;;;;;;;;;11.00;100.00;98236.28;7382088;19;19914;-52
2022/10/23 01:02:12;;;;;;;;;;;;;;;10.71;100.00;98244.19;7385180;19;19949;-50
2022/10/23 01:04:46;;;;;;;;;;;;;;;10.85;100.00;98241.56;7388779;19;19934;-53
2022/10/23 01:07:23;;;;;;;;;;;;;;;10.72;100.00;98248.50;7383893;19;20326;-53
2022/10/23 01:10:04;;;;;;;;;;;;;;;10.76;100.00;98242.97;7386748;19;19923;-54
2022/10/23 01:12:41;;;;;;;;;;;;;;;11.02;100.00;98249.31;7382208;19;20366;-54
2022/10/23 01:15:22;;;;;;;;;;;;;;;10.78;100.00;98238.47;7386992;19;20236;-53
2022/10/23 01:17:57;;;;;;;;;;;;;;;10.77;100.00;98230.69;7380554;19;19919;-52
2022/10/23 01:20:37;;;;;;;;;;;;;;;10.95;100.00;98237.47;7383941;19;19918;-51
2022/10/23 01:23:23;;;;;;;;;;;;;;;10.99;100.00;98239.81;7381031;19;19938;-54
2022/10/23 01:26:03;;;;;;;;;;;;;;;10.67;100.00;98248.81;7385646;19;19939;-53
2022/10/23 01:28:42;;;;;;;;;;;;;;;10.57;100.00;98246.78;7380783;19;19919;-54
2022/10/23 01:31:17;;;;;;;;;;;;;;;10.72;100.00;98253.75;7386795;19;20333;-54
2022/10/23 01:33:52;;;;;;;;;;;;;;;10.93;100.00;98249.84;7389609;19;21531;-59
2022/10/23 01:36:33;;;;;;;;;;;;;;;10.71;100.00;98257.34;7393580;19;20331;-52
2022/10/23 01:39:09;;;;;;;;;;;;;;;10.78;100.00;98266.56;7390408;19;20259;-56
2022/10/23 01:41:45;;;;;;;;;;;;;;;10.79;100.00;98255.09;7394221;19;19919;-51
2022/10/23 01:44:29;;;;;;;;;;;;;;;10.71;100.00;98257.34;7393451;19;19918;-53
2022/10/23 01:47:03;;;;;;;;;;;;;;;10.97;100.00;98259.25;7394247;19;19998;-53
2022/10/23 01:49:41;;;;;;;;;;;;;;;11.05;100.00;98257.88;7390850;19;19982;-50
2022/10/23 01:52:17;;;;;;;;;;;;;;;10.63;100.00;98259.59;7388186;19;19918;-53
2022/10/23 01:54:53;;;;;;;;;;;;;;;10.94;100.00;98257.66;7392443;19;20273;-54
2022/10/23 01:57:28;;;;;;;;;;;;;;;10.79;100.00;98255.09;7385215;19;19907;-53
2022/10/23 02:00:06;;;;;;;;;;;;;;;10.90;100.00;98260.56;7390026;19;19937;-53
2022/10/23 02:02:43;;;;;;;;;;;;;;;10.81;100.00;98264.56;7387563;19;19921;-56
2022/10/23 02:05:19;;;;;;;;;;;;;;;10.70;100.00;98274.06;7391021;19;19928;-54
2022/10/23 02:07:53;;;;;;;;;;;;;;;11.00;100.00;98267.84;7392371;19;19922;-53
2022/10/23 02:10:28;;;;;;;;;;;;;;;10.77;100.00;98259.63;7389463;19;20417;-52
2022/10/23 02:13:04;;;;;;;;;;;;;;;10.88;100.00;98268.53;7390016;19;19919;-51
2022/10/23 02:15:42;;;;;;;;;;;;;;;10.80;100.00;98265.53;7386612;19;19946;-53
2022/10/23 02:18:21;;;;;;;;;;;;;;;10.56;100.00;98268.78;7390619;19;20338;-52
2022/10/23 02:20:59;;;;;;;;;;;;;;;10.93;100.00;98270.91;7382588;19;19914;-55
2022/10/23 02:23:36;;;;;;;;;;;;;;;10.74;100.00;98267.69;7392038;19;19935;-54
2022/10/23 02:26:11;;;;;;;;;;;;;;;10.73;100.00;98279.97;7391486;19;20302;-59
2022/10/23 02:28:47;;;;;;;;;;;;;;;10.99;100.00;98274.03;7390792;19;19953;-55
2022/10/23 02:31:25;;;;;;;;;;;;;;;10.70;100.00;98284.59;7393053;19;19931;-54
2022/10/23 02:34:00;;;;;;;;;;;;;;;10.72;100.00;98282.69;7391623;19;20389;-53
2022/10/23 02:36:32;;;;;;;;;;;;;;;10.65;100.00;98284.00;7391131;19;19919;-53
2022/10/23 02:39:07;;;;;;;;;;;;;;;10.54;100.00;98283.78;7383211;19;19918;-52
2022/10/23 02:41:45;;;;;;;;;;;;;;;10.42;100.00;98285.38;7391200;19;19927;-53
2022/10/23 02:44:25;;;;;;;;;;;;;;;10.68;100.00;98273.28;7391854;19;20247;-59
2022/10/23 02:47:05;;;;;;;;;;;;;;;10.61;100.00;98280.72;7392450;19;20259;-53
2022/10/23 02:49:44;;;;;;;;;;;;;;;10.40;100.00;98281.13;7391424;19;19936;-56
2022/10/23 02:52:24;;;;;;;;;;;;;;;10.51;100.00;98281.34;7391885;19;19927;-49
2022/10/23 02:55:05;;;;;;;;;;;;;;;10.24;100.00;98296.09;7389660;19;19914;-51
2022/10/23 02:57:54;;;;;;;;;;;;;;;10.44;100.00;98287.91;7389347;19;19914;-54
2022/10/23 03:00:33;;;;;;;;;;;;;;;10.61;100.00;98291.22;7383268;19;19923;-50
2022/10/23 03:03:14;;;;;;;;;;;;;;;10.44;100.00;98296.63;7386550;19;19918;-49
2022/10/23 03:05:48;;;;;;;;;;;;;;;10.34;100.00;98302.50;7386292;19;19951;-59
2022/10/23 03:08:21;;;;;;;;;;;;;;;10.81;100.00;98295.31;7390298;19;19922;-51
2022/10/23 03:10:54;;;;;;;;;;;;;;;10.60;100.00;98301.84;7389958;19;19919;-50
2022/10/23 03:13:30;;;;;;;;;;;;;;;10.54;100.00;98305.69;7386476;19;19926;-53
2022/10/23 03:16:03;;;;;;;;;;;;;;;10.40;100.00;98317.94;7391197;19;19907;-49
2022/10/23 03:18:39;;;;;;;;;;;;;;;10.54;100.00;98317.97;7386866;19;19938;-59
2022/10/23 03:21:13;;;;;;;;;;;;;;;10.37;100.00;98313.69;7388110;19;20264;-53
2022/10/23 03:23:46;;;;;;;;;;;;;;;10.65;100.00;98315.56;7391267;19;19910;-49
2022/10/23 03:26:24;;;;;;;;;;;;;;;10.42;100.00;98316.91;7390121;19;19911;-48
2022/10/23 03:28:57;;;;;;;;;;;;;;;10.35;100.00;98322.59;7390019;19;19925;-50
2022/10/23 03:31:30;;;;;;;;;;;;;;;10.40;100.00;98316.13;7384912;19;19923;-48
2022/10/23 03:34:10;;;;;;;;;;;;;;;10.36;100.00;98321.69;7389777;19;19911;-49
2022/10/23 03:36:46;;;;;;;;;;;;;;;10.27;100.00;98322.19;7388670;19;19991;-50
2022/10/23 03:39:20;;;;;;;;;;;;;;;10.46;100.00;98317.56;7387720;19;19917;-49
2022/10/23 03:41:54;;;;;;;;;;;;;;;10.52;100.00;98327.75;7389747;19;19907;-49
2022/10/23 03:44:29;;;;;;;;;;;;;;;10.33;100.00;98329.75;7384528;19;19917;-49
2022/10/23 03:47:04;;;;;;;;;;;;;;;10.35;100.00;98336.59;7388773;19;20327;-54
2022/10/23 03:49:40;;;;;;;;;;;;;;;10.55;100.00;98336.28;7384446;19;19914;-59
2022/10/23 03:52:13;;;;;;;;;;;;;;;10.40;100.00;98329.28;7389041;19;19940;-51
2022/10/23 03:54:46;;;;;;;;;;;;;;;10.54;100.00;98337.22;7387621;19;19915;-50
2022/10/23 03:57:23;;;;;;;;;;;;;;;10.64;100.00;98341.03;7386583;19;19982;-50
2022/10/23 03:59:56;;;;;;;;;;;;;;;10.29;100.00;98338.75;7388209;19;19929;-49
2022/10/23 04:02:30;;;;;;;;;;;;;;;10.47;100.00;98340.28;7382774;19;19926;-50
2022/10/23 04:05:06;;;;;;;;;;;;;;;10.50;100.00;98340.97;7389173;19;19918;-48
2022/10/23 04:07:39;;;;;;;;;;;;;;;10.71;100.00;98336.25;7388428;19;19921;-51
2022/10/23 04:10:13;;;;;;;;;;;;;;;10.34;100.00;98339.31;7387144;19;19915;-48
2022/10/23 04:12:46;;;;;;;;;;;;;;;10.41;100.00;98338.03;7389736;19;19911;-49
2022/10/23 04:15:20;;;;;;;;;;;;;;;10.20;100.00;98336.63;7382196;19;19923;-52
2022/10/23 04:17:53;;;;;;;;;;;;;;;10.22;100.00;98335.59;7388570;19;19915;-51
2022/10/23 04:20:29;;;;;;;;;;;;;;;10.37;100.00;98329.47;7387595;19;19918;-50
2022/10/23 04:23:06;;;;;;;;;;;;;;;10.22;100.00;98332.13;7386409;19;19919;-51
2022/10/23 04:25:40;;;;;;;;;;;;;;;10.01;100.00;98328.06;7387592;19;19915;-49
2022/10/23 04:28:14;;;;;;;;;;;;;;;10.09;100.00;98329.34;7382578;19;19926;-49
2022/10/23 04:30:48;;;;;;;;;;;;;;;10.42;100.00;98334.47;7386851;19;19911;-49
2022/10/23 04:33:21;;;;;;;;;;;;;;;10.21;100.00;98333.03;7389247;19;19922;-50
2022/10/23 04:35:59;;;;;;;;;;;;;;;10.64;100.00;98340.16;7386115;19;20385;-49
2022/10/23 04:38:32;;;;;;;;;;;;;;;10.12;100.00;98349.34;7386985;19;19914;-50
2022/10/23 04:41:07;;;;;;;;;;;;;;;10.44;100.00;98340.50;7379020;19;19946;-51
2022/10/23 04:43:40;;;;;;;;;;;;;;;10.37;100.00;98336.50;7388660;19;19921;-49
2022/10/23 04:46:14;;;;;;;;;;;;;;;10.60;100.00;98334.25;7384767;19;20445;-52
2022/10/23 04:48:47;;;;;;;;;;;;;;;10.31;100.00;98339.47;7386494;19;20331;-52
2022/10/23 04:51:25;;;;;;;;;;;;;;;10.28;100.00;98343.13;7388971;19;19911;-52
2022/10/23 04:54:30;;;;;;;;;;;;;;;10.32;100.00;98335.91;7384012;19;19919;-52
2022/10/23 04:57:17;;;;;;;;;;;;;;;10.11;100.00;98340.59;7382550;19;19915;-53
2022/10/23 05:00:01;;;;;;;;;;;;;;;10.12;100.00;98338.84;7384655;19;19922;-49
2022/10/23 05:02:39;;;;;;;;;;;;;;;10.24;100.00;98332.88;7383442;19;19940;-50
2022/10/23 05:05:13;;;;;;;;;;;;;;;10.07;100.00;98336.44;7384282;19;19994;-50
2022/10/23 05:08:03;;;;;;;;;;;;;;;10.41;100.00;98336.25;7384348;19;19923;-51
2022/10/23 05:10:53;;;;;;;;;;;;;;;10.15;100.00;98334.25;7380417;19;19919;-51
2022/10/23 05:13:26;;;;;;;;;;;;;;;10.26;100.00;98337.09;7383827;19;19949;-53
2022/10/23 05:15:59;;;;;;;;;;;;;;;10.21;100.00;98340.94;7384269;19;19918;-52
2022/10/23 05:18:33;;;;;;;;;;;;;;;10.26;100.00;98336.28;7378167;19;20233;-50
2022/10/23 05:21:08;;;;;;;;;;;;;;;10.57;100.00;98338.81;7381203;19;19918;-50
2022/10/23 05:23:50;;;;;;;;;;;;;;;10.51;100.00;98339.19;7378661;19;19915;-52
2022/10/23 05:26:24;;;;;;;;;;;;;;;10.46;100.00;98338.59;7384709;19;19922;-50
2022/10/23 05:28:59;;;;;;;;;;;;;;;10.36;100.00;98346.16;7382534;19;19915;-53
2022/10/23 05:31:33;;;;;;;;;;;;;;;10.38;100.00;98335.56;7385251;19;19919;-50
2022/10/23 05:34:12;;;;;;;;;;;;;;;10.54;100.00;98339.84;7384067;19;20258;-50
2022/10/23 05:36:48;;;;;;;;;;;;;;;10.61;100.00;98342.97;7383815;19;20408;-50
2022/10/23 05:39:24;;;;;;;;;;;;;;;10.42;100.00;98347.59;7384382;19;19918;-52
2022/10/23 05:42:00;;;;;;;;;;;;;;;10.60;100.00;98346.53;7377557;19;19922;-51
2022/10/23 05:44:34;;;;;;;;;;;;;;;10.45;100.00;98345.66;7385190;19;19950;-50
2022/10/23 05:47:36;;;;;;;;;;;;;;;10.57;100.00;98358.09;7384159;19;19910;-49
2022/10/23 05:50:22;;;;;;;;;;;;;;;10.41;100.00;98356.44;7383748;19;19939;-50
2022/10/23 05:53:33;;;;;;;;;;;;;;;10.38;100.00;98359.22;7379259;19;19922;-58
2022/10/23 05:56:21;;;;;;;;;;;;;;;10.51;100.00;98362.88;7381656;19;20246;-48
2022/10/23 05:59:07;;;;;;;;;;;;;;;10.47;100.00;98350.81;7377143;19;19919;-50
2022/10/23 06:02:07;;;;;;;;;;;;;;;10.67;100.00;98353.16;7380708;19;19922;-58
2022/10/23 06:05:00;;;;;;;;;;;;;;;10.65;100.00;98355.88;7383677;19;20837;-50
2022/10/23 06:07:33;;;;;;;;;;;;;;;10.54;100.00;98345.13;7382344;19;19942;-55
2022/10/23 06:10:10;;;;;;;;;;;;;;;10.48;100.00;98355.97;7382258;19;19919;-51
2022/10/23 06:12:51;;;;;;;;;;;;;;;10.87;100.00;98363.34;7381412;19;20355;-52
2022/10/23 06:15:24;;;;;;;;;;;;;;;10.41;100.00;98375.69;7381708;19;19982;-48
2022/10/23 06:18:06;;;;;;;;;;;;;;;10.65;100.00;98376.03;7385708;19;19911;-49
2022/10/23 06:20:43;;;;;;;;;;;;;;;10.73;100.00;98376.47;7389085;19;20321;-49
2022/10/23 06:23:25;;;;;;;;;;;;;;;10.80;100.00;98381.28;7389453;19;19932;-50
2022/10/23 06:26:19;;;;;;;;;;;;;;;10.94;100.00;98383.94;7389388;19;19914;-53
2022/10/23 06:29:14;;;;;;;;;;;;;;;11.10;100.00;98390.03;7390714;19;19930;-53
2022/10/23 06:31:49;;;;;;;;;;;;;;;10.93;100.00;98391.94;7389084;19;19930;-50
2022/10/23 06:34:22;;;;;;;;;;;;;;;10.94;100.00;98399.75;7379986;19;19922;-50
2022/10/23 06:36:55;;;;;;;;;;;;;;;10.97;100.00;98402.19;7388107;19;19925;-58
2022/10/23 06:39:42;;;;;;;;;;;;;;;10.72;100.00;98393.16;7382711;19;19956;-50
2022/10/23 06:42:48;;;;;;;;;;;;;;;10.88;100.00;98404.53;7385261;19;20334;-54
2022/10/23 06:45:44;;;;;;;;;;;;;;;11.01;100.00;98390.59;7389758;19;19911;-55
2022/10/23 06:48:24;;;;;;;;;;;;;;;10.95;100.00;98398.78;7389439;19;19919;-51
2022/10/23 06:51:12;;;;;;;;;;;;;;;11.13;100.00;98400.38;7389911;19;19917;-54
2022/10/23 06:53:49;;;;;;;;;;;;;;;11.05;100.00;98399.13;7387920;19;19922;-51
2022/10/23 06:56:44;;;;;;;;;;;;;;;10.96;100.00;98407.53;7383434;19;20330;-59
2022/10/23 06:59:18;;;;;;;;;;;;;;;10.86;100.00;98406.38;7388262;19;19930;-55
2022/10/23 07:01:58;;;;;;;;;;;;;;;10.94;100.00;98404.13;7386627;19;19948;-53
2022/10/23 07:04:32;;;;;;;;;;;;;;;11.06;100.00;98411.38;7389167;19;19914;-53
2022/10/23 07:07:08;;;;;;;;;;;;;;;10.85;100.00;98412.59;7388438;19;19915;-50
2022/10/23 07:09:50;;;;;;;;;;;;;;;10.97;100.00;98410.09;7385316;19;20007;-54
2022/10/23 07:12:35;;;;;;;;;;;;;;;10.96;100.00;98413.63;7388316;19;19915;-52
2022/10/23 07:15:40;;;;;;;;;;;;;;;11.13;100.00;98407.41;7388780;19;19949;-56
2022/10/23 07:18:20;;;;;;;;;;;;;;;11.00;100.00;98417.84;7382018;19;19922;-50
2022/10/23 07:21:14;;;;;;;;;;;;;;;11.16;100.00;98405.47;7383745;19;19925;-50
2022/10/23 07:23:50;;;;;;;;;;;;;;;11.12;100.00;98411.00;7386106;19;19922;-55
2022/10/23 07:26:27;;;;;;;;;;;;;;;11.28;100.00;98410.00;7386508;19;19915;-53
2022/10/23 07:29:03;;;;;;;;;;;;;;;11.33;100.00;98402.66;7381110;19;19957;-51
2022/10/23 07:31:44;;;;;;;;;;;;;;;11.50;100.00;98404.25;7385158;19;19923;-51
2022/10/23 07:34:39;;;;;;;;;;;;;;;11.67;100.00;98409.38;7383971;19;19915;-53
2022/10/23 07:37:38;;;;;;;;;;;;;;;11.48;100.00;98406.16;7382090;19;20250;-52
2022/10/23 07:40:16;;;;;;;;;;;;;;;11.75;100.00;98409.72;7384366;19;19915;-51
2022/10/23 07:42:52;;;;;;;;;;;;;;;11.59;100.00;98409.00;7378646;19;20364;-55
2022/10/23 07:45:26;;;;;;;;;;;;;;;11.41;100.00;98405.69;7385495;19;19926;-50
2022/10/23 07:48:02;;;;;;;;;;;;;;;11.75;100.00;98403.63;7375811;19;20033;-59
2022/10/23 07:50:59;;;;;;;;;;;;;;;11.86;100.00;98401.19;7381367;19;19921;-50
2022/10/23 07:53:35;;;;;;;;;;;;;;;11.89;100.00;98401.81;7375355;19;19974;-53
2022/10/23 07:56:19;;;;;;;;;;;;;;;11.90;100.00;98402.69;7374479;19;19911;-53
2022/10/23 07:59:11;;;;;;;;;;;;;;;11.47;100.00;98409.75;7383120;19;19967;-51
2022/10/23 08:01:47;;;;;;;;;;;;;;;11.60;100.00;98408.03;7382006;19;19978;-50
2022/10/23 08:04:21;;;;;;;;;;;;;;;11.73;100.00;98402.88;7382930;19;19950;-50
2022/10/23 08:07:09;;;;;;;;;;;;;;;12.09;100.00;98398.78;7385936;19;19926;-57
2022/10/23 08:09:47;;;;;;;;;;;;;;;12.12;100.00;98403.84;7385025;19;19915;-51
2022/10/23 08:12:21;;;;;;;;;;;;;;;12.42;100.00;98399.28;7382097;19;20041;-53
2022/10/23 08:14:55;;;;;;;;;;;;;;;12.53;100.00;98396.81;7379886;19;19929;-53
2022/10/23 08:17:32;;;;;;;;;;;;;;;12.42;100.00;98387.91;7384914;19;19918;-50
2022/10/23 08:20:17;;;;;;;;;;;;;;;12.35;100.00;98395.38;7378154;19;20260;-53
2022/10/23 08:22:56;;;;;;;;;;;;;;;12.44;100.00;98378.94;7383775;19;20001;-57
2022/10/23 08:25:31;;;;;;;;;;;;;;;12.43;100.00;98373.78;7379350;19;19950;-50
2022/10/23 08:28:05;;;;;;;;;;;;;;;12.36;100.00;98381.25;7383590;19;19918;-52
2022/10/23 08:30:42;;;;;;;;;;;;;;;12.44;100.00;98399.19;7383153;19;19915;-50
2022/10/23 08:33:16;;;;;;;;;;;;;;;12.48;100.00;98393.63;7383879;19;19930;-55
2022/10/23 08:35:53;;;;;;;;;;;;;;;12.67;100.00;98386.19;7381337;19;19933;-52
2022/10/23 08:38:37;;;;;;;;;;;;;;;12.72;100.00;98386.78;7383315;19;20744;-53
2022/10/23 08:41:20;;;;;;;;;;;;;;;12.47;100.00;98388.44;7382258;19;19995;-49
2022/10/23 08:44:02;;;;;;;;;;;;;;;12.31;100.00;98396.50;7384926;19;20216;-49
2022/10/23 08:46:45;;;;;;;;;;;;;;;12.38;100.00;98405.72;7388152;19;19918;-50
2022/10/23 08:49:42;;;;;;;;;;;;;;;12.29;100.00;98401.03;7385091;19;20326;-53
2022/10/23 08:52:25;;;;;;;;;;;;;;;12.39;100.00;98402.16;7379946;19;19979;-51
2022/10/23 08:55:08;;;;;;;;;;;;;;;12.77;100.00;98391.72;7384699;19;19919;-52
2022/10/23 08:57:43;;;;;;;;;;;;;;;12.68;100.00;98397.63;7380372;19;19958;-55
2022/10/23 09:00:19;;;;;;;;;;;;;;;12.60;100.00;98392.81;7385944;19;19919;-50
2022/10/23 09:02:54;;;;;;;;;;;;;;;12.59;100.00;98399.06;7380274;19;19915;-50
2022/10/23 09:05:31;;;;;;;;;;;;;;;13.00;100.00;98405.09;7387953;19;20334;-50
2022/10/23 09:08:10;;;;;;;;;;;;;;;12.94;100.00;98392.31;7385677;19;20276;-50
2022/10/23 09:10:55;;;;;;;;;;;;;;;12.88;100.00;98405.91;7386190;19;19923;-49
2022/10/23 09:13:37;;;;;;;;;;;;;;;12.95;100.00;98407.19;7386975;19;19986;-51
2022/10/23 09:16:19;;;;;;;;;;;;;;;12.95;100.00;98409.84;7386709;19;20362;-53
2022/10/23 09:18:54;;;;;;;;;;;;;;;12.96;100.00;98414.16;7384738;19;20347;-53
2022/10/23 09:21:31;;;;;;;;;;;;;;;13.24;100.00;98413.16;7386777;19;19915;-49
2022/10/23 09:24:04;;;;;;;;;;;;;;;13.39;100.00;98415.66;7387685;19;19943;-50
2022/10/23 09:26:41;;;;;;;;;;;;;;;13.27;100.00;98424.38;7383587;19;19935;-55
2022/10/23 09:29:23;;;;;;;;;;;;;;;13.49;100.00;98411.41;7386489;19;19919;-52
2022/10/23 09:31:57;;;;;;;;;;;;;;;13.45;100.00;98417.84;7381865;19;19915;-50
2022/10/23 09:34:32;;;;;;;;;;;;;;;13.48;100.00;98420.28;7385204;19;19915;-50
2022/10/23 09:37:08;;;;;;;;;;;;;;;13.34;100.00;98415.06;7378178;19;19926;-58
2022/10/23 09:39:42;;;;;;;;;;;;;;;13.45;100.00;98425.78;7385263;19;20432;-51
2022/10/23 09:42:27;;;;;;;;;;;;;;;13.49;100.00;98423.78;7383960;19;19938;-50
2022/10/23 09:45:00;;;;;;;;;;;;;;;13.48;100.00;98408.91;7382171;19;19975;-51
2022/10/23 09:47:33;;;;;;;;;;;;;;;13.51;100.00;98412.16;7383233;19;20507;-51
2022/10/23 09:50:06;;;;;;;;;;;;;;;13.62;100.00;98400.84;7379670;19;19910;-53
2022/10/23 09:52:41;;;;;;;;;;;;;;;13.61;100.00;98404.44;7386948;19;20328;-49
2022/10/23 09:55:25;;;;;;;;;;;;;;;14.04;100.00;98401.31;7390558;19;19982;-59
2022/10/23 09:58:09;;;;;;;;;;;;;;;13.74;100.00;98392.91;7393543;19;19946;-53
2022/10/23 10:00:51;;;;;;;;;;;;;;;13.68;100.00;98382.78;7388590;19;19915;-48
2022/10/23 10:03:26;;;;;;;;;;;;;;;13.65;100.00;98387.41;7389612;19;19927;-51
2022/10/23 10:06:26;;;;;;;;;;;;;;;13.69;100.00;98383.59;7391492;19;20402;-50
2022/10/23 10:09:06;;;;;;;;;;;;;;;13.84;100.00;98383.38;7390799;19;20305;-52
2022/10/23 10:11:46;;;;;;;;;;;;;;;13.95;100.00;98379.97;7389265;19;19978;-50
2022/10/23 10:14:35;;;;;;;;;;;;;;;14.23;100.00;98385.84;7392884;19;20247;-49
2022/10/23 10:17:11;;;;;;;;;;;;;;;14.25;100.00;98386.56;7392272;19;20331;-52
2022/10/23 10:19:49;;;;;;;;;;;;;;;14.07;100.00;98384.41;7392306;19;19926;-48
2022/10/23 10:22:31;;;;;;;;;;;;;;;14.04;100.00;98387.25;7387271;19;20343;-50
2022/10/23 10:25:07;;;;;;;;;;;;;;;13.82;100.00;98384.44;7390218;19;20236;-52
2022/10/23 10:27:47;;;;;;;;;;;;;;;13.81;100.00;98390.69;7390605;19;20540;-52
2022/10/23 10:30:25;;;;;;;;;;;;;;;14.11;100.00;98388.50;7390090;19;19923;-50
2022/10/23 10:33:03;;;;;;;;;;;;;;;14.05;100.00;98403.03;7383835;19;19923;-48
2022/10/23 10:35:42;;;;;;;;;;;;;;;14.12;100.00;98401.63;7384415;19;19939;-49
2022/10/23 10:38:24;;;;;;;;;;;;;;;14.36;100.00;98393.72;7381946;19;20331;-50
2022/10/23 10:41:03;;;;;;;;;;;;;;;14.44;100.00;98402.00;7390429;19;20356;-51
2022/10/23 10:43:44;;;;;;;;;;;;;;;13.76;100.00;98390.16;7380793;19;19915;-51
2022/10/23 10:46:26;;;;;;;;;;;;;;;13.85;100.00;98395.63;7389988;19;19915;-53
2022/10/23 10:49:02;;;;;;;;;;;;;;;13.70;100.00;98395.88;7388277;19;20031;-48
2022/10/23 10:52:14;;;;;;;;;;;;;;;13.65;100.00;98400.63;7384285;19;19949;-48
2022/10/23 10:54:56;;;;;;;;;;;;;;;13.67;100.00;98386.34;7385493;19;19918;-49
2022/10/23 10:57:42;;;;;;;;;;;;;;;14.27;100.00;98382.03;7383870;19;19998;-50
2022/10/23 11:00:23;;;;;;;;;;;;;;;14.14;100.00;98372.41;7386476;19;19915;-51
2022/10/23 11:02:59;;;;;;;;;;;;;;;13.92;100.00;98369.63;7378652;19;19923;-48
2022/10/23 11:05:36;;;;;;;;;;;;;;;13.73;100.00;98366.56;7385865;19;19919;-52
2022/10/23 11:08:13;;;;;;;;;;;;;;;13.65;100.00;98359.19;7383551;19;19942;-51
2022/10/23 11:10:48;;;;;;;;;;;;;;;13.62;100.00;98356.75;7388871;19;19932;-50
2022/10/23 11:13:28;;;;;;;;;;;;;;;13.74;100.00;98353.25;7385001;19;20268;-58
2022/10/23 11:16:04;;;;;;;;;;;;;;;13.80;100.00;98351.97;7385531;19;19927;-51
2022/10/23 11:18:41;;;;;;;;;;;;;;;13.78;100.00;98349.44;7387294;19;19929;-58
2022/10/23 11:21:24;;;;;;;;;;;;;;;13.90;100.00;98347.72;7387298;19;20265;-53
2022/10/23 11:24:09;;;;;;;;;;;;;;;14.10;100.00;98353.28;7380216;19;19922;-56
2022/10/23 11:26:50;;;;;;;;;;;;;;;14.06;100.00;98357.09;7386981;19;19919;-50
2022/10/23 11:29:30;;;;;;;;;;;;;;;14.01;100.00;98353.09;7383941;19;20307;-52
2022/10/23 11:32:17;;;;;;;;;;;;;;;13.74;100.00;98347.13;7385410;19;19919;-48
2022/10/23 11:34:58;;;;;;;;;;;;;;;13.87;100.00;98348.81;7383848;19;19921;-50
2022/10/23 11:37:38;;;;;;;;;;;;;;;13.80;100.00;98339.63;7389150;19;19914;-49
2022/10/23 11:40:23;;;;;;;;;;;;;;;13.94;100.00;98336.84;7384052;19;20323;-49
2022/10/23 11:42:57;;;;;;;;;;;;;;;14.08;100.00;98341.13;7388920;19;19919;-49
2022/10/23 11:45:34;;;;;;;;;;;;;;;13.65;100.00;98338.06;7384277;19;19926;-51
2022/10/23 11:48:07;;;;;;;;;;;;;;;13.86;100.00;98338.34;7387123;19;19926;-50
2022/10/23 11:50:55;;;;;;;;;;;;;;;13.81;100.00;98338.66;7386489;19;19914;-48
2022/10/23 11:53:30;;;;;;;;;;;;;;;13.72;100.00;98326.09;7382118;19;20350;-49
2022/10/23 11:56:05;;;;;;;;;;;;;;;13.80;100.00;98313.19;7386696;19;19922;-58
2022/10/23 11:58:51;;;;;;;;;;;;;;;13.73;100.00;98319.84;7386772;19;19933;-49
2022/10/23 12:01:31;;;;;;;;;;;;;;;13.80;100.00;98310.53;7381751;19;19998;-59
2022/10/23 12:04:06;;;;;;;;;;;;;;;13.81;100.00;98300.81;7382676;19;20372;-55
2022/10/23 12:06:44;;;;;;;;;;;;;;;14.06;100.00;98306.00;7384475;19;19915;-52
2022/10/23 12:09:28;;;;;;;;;;;;;;;13.88;100.00;98305.53;7386708;19;20635;-48
2022/10/23 12:12:10;;;;;;;;;;;;;;;14.04;100.00;98300.00;7385850;19;20248;-50
2022/10/23 12:14:44;;;;;;;;;;;;;;;14.08;100.00;98290.88;7384268;19;19915;-50
2022/10/23 12:17:34;;;;;;;;;;;;;;;13.99;100.00;98287.09;7388153;19;19923;-48
2022/10/23 12:20:10;;;;;;;;;;;;;;;13.92;100.00;98280.56;7386074;19;20362;-52
2022/10/23 12:22:53;;;;;;;;;;;;;;;14.02;100.00;98273.66;7381512;19;19919;-56
2022/10/23 12:25:30;;;;;;;;;;;;;;;14.21;100.00;98271.34;7385106;19;19938;-51
2022/10/23 12:28:06;;;;;;;;;;;;;;;14.04;100.00;98270.91;7386509;19;19926;-48
2022/10/23 12:30:46;;;;;;;;;;;;;;;13.73;100.00;98272.28;7385111;19;20513;-47
2022/10/23 12:33:25;;;;;;;;;;;;;;;13.73;100.00;98267.00;7387518;19;19922;-51
2022/10/23 12:36:15;;;;;;;;;;;;;;;13.75;100.00;98257.16;7387293;19;19934;-49
2022/10/23 12:38:53;;;;;;;;;;;;;;;14.07;100.00;98257.47;7386360;19;19940;-51
2022/10/23 12:41:29;;;;;;;;;;;;;;;14.00;100.00;98262.34;7385813;19;20375;-48
2022/10/23 12:44:06;;;;;;;;;;;;;;;14.13;100.00;98262.28;7383105;19;19925;-52
2022/10/23 12:46:41;;;;;;;;;;;;;;;14.11;100.00;98265.03;7383603;19;20315;-50
2022/10/23 12:49:20;;;;;;;;;;;;;;;13.98;100.00;98261.63;7386511;19;19911;-51
2022/10/23 12:52:00;;;;;;;;;;;;;;;14.04;100.00;98260.34;7383464;19;19911;-50
2022/10/23 12:54:37;;;;;;;;;;;;;;;14.14;100.00;98248.94;7386988;19;19922;-49
2022/10/23 12:57:21;;;;;;;;;;;;;;;14.03;100.00;98243.63;7381978;19;19929;-51
2022/10/23 12:59:56;;;;;;;;;;;;;;;13.94;100.00;98246.09;7386202;19;19911;-51
2022/10/23 13:02:31;;;;;;;;;;;;;;;14.08;100.00;98236.19;7380156;19;19914;-54
2022/10/23 13:05:05;;;;;;;;;;;;;;;13.88;100.00;98235.94;7384253;19;20323;-50
2022/10/23 13:07:41;;;;;;;;;;;;;;;14.14;100.00;98237.53;7383036;19;21173;-56
2022/10/23 13:10:21;;;;;;;;;;;;;;;14.11;100.00;98240.41;7380787;19;19922;-50
2022/10/23 13:13:01;;;;;;;;;;;;;;;14.10;100.00;98247.50;7379288;19;19921;-50
2022/10/23 13:15:43;;;;;;;;;;;;;;;14.04;100.00;98244.47;7379604;19;20198;-50
2022/10/23 13:18:20;;;;;;;;;;;;;;;13.90;100.00;98239.34;7376909;19;19923;-49
2022/10/23 13:21:04;;;;;;;;;;;;;;;14.00;100.00;98241.19;7384260;19;19922;-52
2022/10/23 13:23:41;;;;;;;;;;;;;;;13.70;100.00;98238.13;7378821;19;19919;-53
2022/10/23 13:26:29;;;;;;;;;;;;;;;13.86;100.00;98248.44;7384550;19;19923;-52
2022/10/23 13:29:06;;;;;;;;;;;;;;;13.68;100.00;98249.78;7380033;19;19954;-59
2022/10/23 13:31:39;;;;;;;;;;;;;;;13.73;100.00;98247.63;7383720;19;20369;-54
2022/10/23 13:34:27;;;;;;;;;;;;;;;13.86;100.00;98244.03;7384923;19;19923;-53